sensor_id;sensor_type;location;lat;lon;timestamp;temperature;humidity
62464;SHT31;48512;48.552;9.380;2022-08-19T00:01:48;19.73;88.71
62464;SHT31;48512;48.552;9.380;2022-08-19T00:04:15;19.79;88.42
62464;SHT31;48512;48.552;9.380;2022-08-19T00:06:42;19.72;89.01
62464;SHT31;48512;48.552;9.380;2022-08-19T00:09:11;19.72;88.89
62464;SHT31;48512;48.552;9.380;2022-08-19T00:11:37;19.76;88.71
62464;SHT31;48512;48.552;9.380;2022-08-19T00:14:05;19.75;89.34
62464;SHT31;48512;48.552;9.380;2022-08-19T00:16:31;19.79;88.37
62464;SHT31;48512;48.552;9.380;2022-08-19T00:18:57;20.01;87.98
62464;SHT31;48512;48.552;9.380;2022-08-19T00:21:24;20.00;87.48
62464;SHT31;48512;48.552;9.380;2022-08-19T00:23:50;19.90;86.99
62464;SHT31;48512;48.552;9.380;2022-08-19T00:26:16;19.75;87.64
62464;SHT31;48512;48.552;9.380;2022-08-19T00:28:41;19.76;88.01
62464;SHT31;48512;48.552;9.380;2022-08-19T00:31:07;19.71;88.68
62464;SHT31;48512;48.552;9.380;2022-08-19T00:33:33;19.66;88.39
62464;SHT31;48512;48.552;9.380;2022-08-19T00:35:59;19.62;88.76
62464;SHT31;48512;48.552;9.380;2022-08-19T00:38:25;19.58;88.70
62464;SHT31;48512;48.552;9.380;2022-08-19T00:40:52;19.57;88.58
62464;SHT31;48512;48.552;9.380;2022-08-19T00:43:23;19.55;89.54
62464;SHT31;48512;48.552;9.380;2022-08-19T00:45:49;19.55;88.68
62464;SHT31;48512;48.552;9.380;2022-08-19T00:48:15;19.47;88.67
62464;SHT31;48512;48.552;9.380;2022-08-19T00:50:41;19.35;89.00
62464;SHT31;48512;48.552;9.380;2022-08-19T00:53:09;19.39;89.44
62464;SHT31;48512;48.552;9.380;2022-08-19T00:55:34;19.42;89.27
62464;SHT31;48512;48.552;9.380;2022-08-19T00:58:12;19.42;89.61
62464;SHT31;48512;48.552;9.380;2022-08-19T01:00:39;19.50;89.17
62464;SHT31;48512;48.552;9.380;2022-08-19T01:03:12;19.58;88.62
62464;SHT31;48512;48.552;9.380;2022-08-19T01:05:39;19.57;88.02
62464;SHT31;48512;48.552;9.380;2022-08-19T01:08:06;19.58;88.20
62464;SHT31;48512;48.552;9.380;2022-08-19T01:10:37;19.65;87.84
62464;SHT31;48512;48.552;9.380;2022-08-19T01:13:04;19.66;88.04
62464;SHT31;48512;48.552;9.380;2022-08-19T01:15:34;19.76;87.49
62464;SHT31;48512;48.552;9.380;2022-08-19T01:18:06;19.59;87.72
62464;SHT31;48512;48.552;9.380;2022-08-19T01:20:32;19.59;87.98
62464;SHT31;48512;48.552;9.380;2022-08-19T01:22:59;19.51;88.17
62464;SHT31;48512;48.552;9.380;2022-08-19T01:25:32;19.47;88.56
62464;SHT31;48512;48.552;9.380;2022-08-19T01:28:00;19.44;88.56
62464;SHT31;48512;48.552;9.380;2022-08-19T01:30:31;19.44;88.80
62464;SHT31;48512;48.552;9.380;2022-08-19T01:32:57;19.34;88.84
62464;SHT31;48512;48.552;9.380;2022-08-19T01:35:26;19.32;88.65
62464;SHT31;48512;48.552;9.380;2022-08-19T01:37:54;19.28;88.97
62464;SHT31;48512;48.552;9.380;2022-08-19T01:40:22;19.23;88.92
62464;SHT31;48512;48.552;9.380;2022-08-19T01:42:50;19.31;89.11
62464;SHT31;48512;48.552;9.380;2022-08-19T01:45:16;19.27;88.37
62464;SHT31;48512;48.552;9.380;2022-08-19T01:47:41;19.32;87.95
62464;SHT31;48512;48.552;9.380;2022-08-19T01:50:08;19.35;88.27
62464;SHT31;48512;48.552;9.380;2022-08-19T01:52:36;19.23;89.43
62464;SHT31;48512;48.552;9.380;2022-08-19T01:55:04;19.23;89.13
62464;SHT31;48512;48.552;9.380;2022-08-19T01:57:30;19.20;89.02
62464;SHT31;48512;48.552;9.380;2022-08-19T01:59:56;19.13;89.03
62464;SHT31;48512;48.552;9.380;2022-08-19T02:02:22;19.10;89.38
62464;SHT31;48512;48.552;9.380;2022-08-19T02:04:47;19.11;89.17
62464;SHT31;48512;48.552;9.380;2022-08-19T02:07:13;19.07;89.20
62464;SHT31;48512;48.552;9.380;2022-08-19T02:09:38;19.08;89.28
62464;SHT31;48512;48.552;9.380;2022-08-19T02:12:04;19.03;89.54
62464;SHT31;48512;48.552;9.380;2022-08-19T02:14:30;19.08;89.27
62464;SHT31;48512;48.552;9.380;2022-08-19T02:16:55;19.14;89.15
62464;SHT31;48512;48.552;9.380;2022-08-19T02:19:21;19.06;89.19
62464;SHT31;48512;48.552;9.380;2022-08-19T02:21:46;19.03;89.24
62464;SHT31;48512;48.552;9.380;2022-08-19T02:24:11;18.97;89.46
62464;SHT31;48512;48.552;9.380;2022-08-19T02:26:37;19.00;89.51
62464;SHT31;48512;48.552;9.380;2022-08-19T02:29:03;19.06;89.23
62464;SHT31;48512;48.552;9.380;2022-08-19T02:31:29;19.07;89.43
62464;SHT31;48512;48.552;9.380;2022-08-19T02:33:55;19.06;89.75
62464;SHT31;48512;48.552;9.380;2022-08-19T02:36:21;18.96;89.83
62464;SHT31;48512;48.552;9.380;2022-08-19T02:38:47;18.96;89.95
62464;SHT31;48512;48.552;9.380;2022-08-19T02:41:21;19.04;89.63
62464;SHT31;48512;48.552;9.380;2022-08-19T02:43:47;19.00;89.42
62464;SHT31;48512;48.552;9.380;2022-08-19T02:46:17;18.93;89.99
62464;SHT31;48512;48.552;9.380;2022-08-19T02:48:49;18.92;89.73
62464;SHT31;48512;48.552;9.380;2022-08-19T02:51:16;18.83;89.99
62464;SHT31;48512;48.552;9.380;2022-08-19T02:53:41;18.73;90.26
62464;SHT31;48512;48.552;9.380;2022-08-19T02:56:07;18.66;90.46
62464;SHT31;48512;48.552;9.380;2022-08-19T02:58:33;18.62;90.51
62464;SHT31;48512;48.552;9.380;2022-08-19T03:00:58;18.63;90.61
62464;SHT31;48512;48.552;9.380;2022-08-19T03:03:24;18.60;90.62
62464;SHT31;48512;48.552;9.380;2022-08-19T03:05:49;18.58;91.06
62464;SHT31;48512;48.552;9.380;2022-08-19T03:08:15;18.62;90.78
62464;SHT31;48512;48.552;9.380;2022-08-19T03:10:47;18.67;91.05
62464;SHT31;48512;48.552;9.380;2022-08-19T03:13:16;18.65;91.08
62464;SHT31;48512;48.552;9.380;2022-08-19T03:15:43;18.72;90.98
62464;SHT31;48512;48.552;9.380;2022-08-19T03:18:09;18.72;91.11
62464;SHT31;48512;48.552;9.380;2022-08-19T03:20:40;18.79;90.59
62464;SHT31;48512;48.552;9.380;2022-08-19T03:23:06;18.77;90.61
62464;SHT31;48512;48.552;9.380;2022-08-19T03:25:36;18.89;90.21
62464;SHT31;48512;48.552;9.380;2022-08-19T03:28:02;18.85;90.25
62464;SHT31;48512;48.552;9.380;2022-08-19T03:30:28;18.82;90.25
62464;SHT31;48512;48.552;9.380;2022-08-19T03:32:53;18.83;90.24
62464;SHT31;48512;48.552;9.380;2022-08-19T03:35:19;18.67;90.77
62464;SHT31;48512;48.552;9.380;2022-08-19T03:37:45;18.59;91.35
62464;SHT31;48512;48.552;9.380;2022-08-19T03:40:10;18.59;91.09
62464;SHT31;48512;48.552;9.380;2022-08-19T03:42:36;18.70;90.58
62464;SHT31;48512;48.552;9.380;2022-08-19T03:45:02;18.72;90.98
62464;SHT31;48512;48.552;9.380;2022-08-19T03:47:28;18.86;90.61
62464;SHT31;48512;48.552;9.380;2022-08-19T03:49:53;18.72;90.81
62464;SHT31;48512;48.552;9.380;2022-08-19T03:52:18;18.73;90.89
62464;SHT31;48512;48.552;9.380;2022-08-19T03:54:44;18.72;90.65
62464;SHT31;48512;48.552;9.380;2022-08-19T03:57:10;18.66;90.70
62464;SHT31;48512;48.552;9.380;2022-08-19T03:59:37;18.58;91.42
62464;SHT31;48512;48.552;9.380;2022-08-19T04:02:08;18.63;91.20
62464;SHT31;48512;48.552;9.380;2022-08-19T04:04:35;18.56;91.32
62464;SHT31;48512;48.552;9.380;2022-08-19T04:07:01;18.62;91.24
62464;SHT31;48512;48.552;9.380;2022-08-19T04:09:26;18.63;91.28
62464;SHT31;48512;48.552;9.380;2022-08-19T04:11:55;18.75;90.94
62464;SHT31;48512;48.552;9.380;2022-08-19T04:14:24;18.77;90.71
62464;SHT31;48512;48.552;9.380;2022-08-19T04:16:51;18.86;90.91
62464;SHT31;48512;48.552;9.380;2022-08-19T04:19:17;18.79;91.02
62464;SHT31;48512;48.552;9.380;2022-08-19T04:21:46;18.73;91.03
62464;SHT31;48512;48.552;9.380;2022-08-19T04:24:12;18.76;91.10
62464;SHT31;48512;48.552;9.380;2022-08-19T04:26:38;18.72;90.97
62464;SHT31;48512;48.552;9.380;2022-08-19T04:29:42;18.79;91.12
62464;SHT31;48512;48.552;9.380;2022-08-19T04:32:00;18.86;91.09
62464;SHT31;48512;48.552;9.380;2022-08-19T04:34:28;18.86;90.70
62464;SHT31;48512;48.552;9.380;2022-08-19T04:36:56;18.89;91.01
62464;SHT31;48512;48.552;9.380;2022-08-19T04:39:25;18.92;90.91
62464;SHT31;48512;48.552;9.380;2022-08-19T04:42:11;18.85;91.00
62464;SHT31;48512;48.552;9.380;2022-08-19T04:44:55;18.85;91.34
62464;SHT31;48512;48.552;9.380;2022-08-19T04:47:20;18.85;91.28
62464;SHT31;48512;48.552;9.380;2022-08-19T04:49:45;18.83;91.55
62464;SHT31;48512;48.552;9.380;2022-08-19T04:52:11;18.87;91.61
62464;SHT31;48512;48.552;9.380;2022-08-19T04:54:37;18.86;91.62
62464;SHT31;48512;48.552;9.380;2022-08-19T04:57:02;18.93;91.25
62464;SHT31;48512;48.552;9.380;2022-08-19T04:59:31;19.03;91.02
62464;SHT31;48512;48.552;9.380;2022-08-19T05:01:57;19.04;91.37
62464;SHT31;48512;48.552;9.380;2022-08-19T05:04:22;19.06;91.52
62464;SHT31;48512;48.552;9.380;2022-08-19T05:06:48;19.14;91.11
62464;SHT31;48512;48.552;9.380;2022-08-19T05:09:14;19.28;89.98
62464;SHT31;48512;48.552;9.380;2022-08-19T05:11:40;19.11;90.08
62464;SHT31;48512;48.552;9.380;2022-08-19T05:14:07;19.02;90.48
62464;SHT31;48512;48.552;9.380;2022-08-19T05:16:32;19.02;90.88
62464;SHT31;48512;48.552;9.380;2022-08-19T05:18:58;19.07;90.92
62464;SHT31;48512;48.552;9.380;2022-08-19T05:21:42;19.11;90.71
62464;SHT31;48512;48.552;9.380;2022-08-19T05:24:27;19.23;90.20
62464;SHT31;48512;48.552;9.380;2022-08-19T05:26:54;19.25;89.74
62464;SHT31;48512;48.552;9.380;2022-08-19T05:29:23;19.21;89.95
62464;SHT31;48512;48.552;9.380;2022-08-19T05:31:49;19.15;90.49
62464;SHT31;48512;48.552;9.380;2022-08-19T05:34:16;19.11;90.45
62464;SHT31;48512;48.552;9.380;2022-08-19T05:36:43;19.21;90.06
62464;SHT31;48512;48.552;9.380;2022-08-19T05:39:17;19.23;90.67
62464;SHT31;48512;48.552;9.380;2022-08-19T05:41:48;19.21;90.41
62464;SHT31;48512;48.552;9.380;2022-08-19T05:44:14;19.28;90.08
62464;SHT31;48512;48.552;9.380;2022-08-19T05:46:40;19.23;90.14
62464;SHT31;48512;48.552;9.380;2022-08-19T05:49:08;19.25;90.07
62464;SHT31;48512;48.552;9.380;2022-08-19T05:51:35;19.24;89.98
62464;SHT31;48512;48.552;9.380;2022-08-19T05:54:03;19.28;89.71
62464;SHT31;48512;48.552;9.380;2022-08-19T05:56:30;19.36;89.84
62464;SHT31;48512;48.552;9.380;2022-08-19T05:58:56;19.41;89.44
62464;SHT31;48512;48.552;9.380;2022-08-19T06:01:21;19.39;90.15
62464;SHT31;48512;48.552;9.380;2022-08-19T06:03:46;19.42;89.81
62464;SHT31;48512;48.552;9.380;2022-08-19T06:06:15;19.47;88.78
62464;SHT31;48512;48.552;9.380;2022-08-19T06:08:41;19.51;87.82
62464;SHT31;48512;48.552;9.380;2022-08-19T06:13:46;19.47;87.94
62464;SHT31;48512;48.552;9.380;2022-08-19T06:16:15;19.42;87.62
62464;SHT31;48512;48.552;9.380;2022-08-19T06:18:46;19.28;89.11
62464;SHT31;48512;48.552;9.380;2022-08-19T06:21:11;19.31;88.80
62464;SHT31;48512;48.552;9.380;2022-08-19T06:23:37;19.38;88.74
62464;SHT31;48512;48.552;9.380;2022-08-19T06:26:04;19.41;88.71
62464;SHT31;48512;48.552;9.380;2022-08-19T06:28:29;19.38;88.93
62464;SHT31;48512;48.552;9.380;2022-08-19T06:30:54;19.42;88.98
62464;SHT31;48512;48.552;9.380;2022-08-19T06:33:20;19.39;88.65
62464;SHT31;48512;48.552;9.380;2022-08-19T06:35:45;19.42;88.07
62464;SHT31;48512;48.552;9.380;2022-08-19T06:38:11;19.47;87.51
62464;SHT31;48512;48.552;9.380;2022-08-19T06:40:36;19.48;87.39
62464;SHT31;48512;48.552;9.380;2022-08-19T06:43:03;19.51;87.17
62464;SHT31;48512;48.552;9.380;2022-08-19T06:45:28;19.52;88.19
62464;SHT31;48512;48.552;9.380;2022-08-19T06:47:54;19.42;87.83
62464;SHT31;48512;48.552;9.380;2022-08-19T06:50:22;19.36;87.76
62464;SHT31;48512;48.552;9.380;2022-08-19T06:52:47;19.36;87.33
62464;SHT31;48512;48.552;9.380;2022-08-19T06:55:14;19.28;88.08
62464;SHT31;48512;48.552;9.380;2022-08-19T06:57:39;19.31;87.82
62464;SHT31;48512;48.552;9.380;2022-08-19T07:00:05;19.36;88.23
62464;SHT31;48512;48.552;9.380;2022-08-19T07:02:36;19.42;88.33
62464;SHT31;48512;48.552;9.380;2022-08-19T07:05:02;19.38;88.06
62464;SHT31;48512;48.552;9.380;2022-08-19T07:07:32;19.36;88.05
62464;SHT31;48512;48.552;9.380;2022-08-19T07:09:58;19.38;87.68
62464;SHT31;48512;48.552;9.380;2022-08-19T07:12:23;19.39;88.39
62464;SHT31;48512;48.552;9.380;2022-08-19T07:14:49;19.39;88.13
62464;SHT31;48512;48.552;9.380;2022-08-19T07:17:14;19.45;88.46
62464;SHT31;48512;48.552;9.380;2022-08-19T07:19:40;19.47;86.86
62464;SHT31;48512;48.552;9.380;2022-08-19T07:22:08;19.47;87.30
62464;SHT31;48512;48.552;9.380;2022-08-19T07:24:35;19.41;88.36
62464;SHT31;48512;48.552;9.380;2022-08-19T07:27:02;19.45;87.65
62464;SHT31;48512;48.552;9.380;2022-08-19T07:29:31;19.48;86.63
62464;SHT31;48512;48.552;9.380;2022-08-19T07:31:58;19.50;87.42
62464;SHT31;48512;48.552;9.380;2022-08-19T07:34:25;19.45;87.95
62464;SHT31;48512;48.552;9.380;2022-08-19T07:36:51;19.50;87.55
62464;SHT31;48512;48.552;9.380;2022-08-19T07:39:23;19.47;88.75
62464;SHT31;48512;48.552;9.380;2022-08-19T07:41:49;19.51;87.84
62464;SHT31;48512;48.552;9.380;2022-08-19T07:44:16;19.51;86.90
62464;SHT31;48512;48.552;9.380;2022-08-19T07:46:44;19.54;87.61
62464;SHT31;48512;48.552;9.380;2022-08-19T07:49:11;19.50;87.45
62464;SHT31;48512;48.552;9.380;2022-08-19T07:51:43;19.45;87.89
62464;SHT31;48512;48.552;9.380;2022-08-19T07:54:08;19.36;88.38
62464;SHT31;48512;48.552;9.380;2022-08-19T07:56:34;19.42;87.77
62464;SHT31;48512;48.552;9.380;2022-08-19T07:58:59;19.45;88.31
62464;SHT31;48512;48.552;9.380;2022-08-19T08:01:26;19.44;88.53
62464;SHT31;48512;48.552;9.380;2022-08-19T08:03:53;19.39;88.99
62464;SHT31;48512;48.552;9.380;2022-08-19T08:06:38;19.38;88.48
62464;SHT31;48512;48.552;9.380;2022-08-19T08:09:32;19.39;89.06
62464;SHT31;48512;48.552;9.380;2022-08-19T08:12:06;19.41;88.44
62464;SHT31;48512;48.552;9.380;2022-08-19T08:14:37;19.42;88.60
62464;SHT31;48512;48.552;9.380;2022-08-19T08:17:05;19.44;88.36
62464;SHT31;48512;48.552;9.380;2022-08-19T08:19:31;19.45;88.49
62464;SHT31;48512;48.552;9.380;2022-08-19T08:21:58;19.44;88.31
62464;SHT31;48512;48.552;9.380;2022-08-19T08:24:29;19.42;88.52
62464;SHT31;48512;48.552;9.380;2022-08-19T08:26:57;19.45;88.84
62464;SHT31;48512;48.552;9.380;2022-08-19T08:29:24;19.42;89.21
62464;SHT31;48512;48.552;9.380;2022-08-19T08:31:51;19.32;89.01
62464;SHT31;48512;48.552;9.380;2022-08-19T08:34:49;19.47;88.60
62464;SHT31;48512;48.552;9.380;2022-08-19T08:37:33;19.42;89.27
62464;SHT31;48512;48.552;9.380;2022-08-19T08:40:02;19.42;89.03
62464;SHT31;48512;48.552;9.380;2022-08-19T08:42:34;19.44;88.90
62464;SHT31;48512;48.552;9.380;2022-08-19T08:45:12;19.45;89.04
62464;SHT31;48512;48.552;9.380;2022-08-19T08:47:41;19.39;89.38
62464;SHT31;48512;48.552;9.380;2022-08-19T08:50:33;19.45;89.01
62464;SHT31;48512;48.552;9.380;2022-08-19T08:53:02;19.51;88.35
62464;SHT31;48512;48.552;9.380;2022-08-19T08:55:31;19.47;87.90
62464;SHT31;48512;48.552;9.380;2022-08-19T08:58:07;19.50;87.84
62464;SHT31;48512;48.552;9.380;2022-08-19T09:00:40;19.50;87.83
62464;SHT31;48512;48.552;9.380;2022-08-19T09:03:18;19.45;87.94
62464;SHT31;48512;48.552;9.380;2022-08-19T09:06:07;19.39;88.18
62464;SHT31;48512;48.552;9.380;2022-08-19T09:08:40;19.42;88.17
62464;SHT31;48512;48.552;9.380;2022-08-19T09:11:12;19.47;88.46
62464;SHT31;48512;48.552;9.380;2022-08-19T09:16:35;19.41;89.03
62464;SHT31;48512;48.552;9.380;2022-08-19T09:19:04;19.44;89.15
62464;SHT31;48512;48.552;9.380;2022-08-19T09:21:30;19.42;88.45
62464;SHT31;48512;48.552;9.380;2022-08-19T09:23:56;19.44;88.42
62464;SHT31;48512;48.552;9.380;2022-08-19T09:26:23;19.48;88.40
62464;SHT31;48512;48.552;9.380;2022-08-19T09:28:51;19.39;89.24
62464;SHT31;48512;48.552;9.380;2022-08-19T09:31:26;19.47;88.95
62464;SHT31;48512;48.552;9.380;2022-08-19T09:33:52;19.48;88.11
62464;SHT31;48512;48.552;9.380;2022-08-19T09:36:20;19.51;88.22
62464;SHT31;48512;48.552;9.380;2022-08-19T09:39:13;19.48;88.04
62464;SHT31;48512;48.552;9.380;2022-08-19T09:41:39;19.48;87.81
62464;SHT31;48512;48.552;9.380;2022-08-19T09:44:04;19.48;87.67
62464;SHT31;48512;48.552;9.380;2022-08-19T09:46:30;19.51;87.88
62464;SHT31;48512;48.552;9.380;2022-08-19T09:48:58;19.52;87.64
62464;SHT31;48512;48.552;9.380;2022-08-19T09:51:26;19.52;89.50
62464;SHT31;48512;48.552;9.380;2022-08-19T09:53:52;19.54;89.47
62464;SHT31;48512;48.552;9.380;2022-08-19T09:56:22;19.54;88.90
62464;SHT31;48512;48.552;9.380;2022-08-19T09:58:47;19.54;89.34
62464;SHT31;48512;48.552;9.380;2022-08-19T10:01:23;19.52;89.25
62464;SHT31;48512;48.552;9.380;2022-08-19T10:03:50;19.52;88.90
62464;SHT31;48512;48.552;9.380;2022-08-19T10:06:17;19.55;89.09
62464;SHT31;48512;48.552;9.380;2022-08-19T10:08:44;19.57;88.97
62464;SHT31;48512;48.552;9.380;2022-08-19T10:11:09;19.58;88.88
62464;SHT31;48512;48.552;9.380;2022-08-19T10:13:35;19.61;88.57
62464;SHT31;48512;48.552;9.380;2022-08-19T10:16:05;19.57;88.15
62464;SHT31;48512;48.552;9.380;2022-08-19T10:18:31;19.51;88.29
62464;SHT31;48512;48.552;9.380;2022-08-19T10:21:06;19.45;89.36
62464;SHT31;48512;48.552;9.380;2022-08-19T10:23:36;19.38;89.31
62464;SHT31;48512;48.552;9.380;2022-08-19T10:26:04;19.36;89.24
62464;SHT31;48512;48.552;9.380;2022-08-19T10:28:32;19.25;89.36
62464;SHT31;48512;48.552;9.380;2022-08-19T10:30:57;19.28;89.46
62464;SHT31;48512;48.552;9.380;2022-08-19T10:33:24;19.20;89.56
62464;SHT31;48512;48.552;9.380;2022-08-19T10:35:59;19.15;89.79
62464;SHT31;48512;48.552;9.380;2022-08-19T10:38:25;19.17;90.08
62464;SHT31;48512;48.552;9.380;2022-08-19T10:41:15;19.08;89.68
62464;SHT31;48512;48.552;9.380;2022-08-19T10:43:41;19.10;90.04
62464;SHT31;48512;48.552;9.380;2022-08-19T10:46:08;19.04;89.84
62464;SHT31;48512;48.552;9.380;2022-08-19T10:48:34;18.99;89.98
62464;SHT31;48512;48.552;9.380;2022-08-19T10:51:00;19.04;90.40
62464;SHT31;48512;48.552;9.380;2022-08-19T10:53:44;19.08;90.11
62464;SHT31;48512;48.552;9.380;2022-08-19T10:56:10;19.07;89.57
62464;SHT31;48512;48.552;9.380;2022-08-19T10:58:54;18.99;89.89
62464;SHT31;48512;48.552;9.380;2022-08-19T11:01:22;18.99;89.82
62464;SHT31;48512;48.552;9.380;2022-08-19T11:03:47;18.96;90.34
62464;SHT31;48512;48.552;9.380;2022-08-19T11:06:13;18.99;89.94
62464;SHT31;48512;48.552;9.380;2022-08-19T11:08:38;18.97;90.26
62464;SHT31;48512;48.552;9.380;2022-08-19T11:11:05;19.03;90.91
62464;SHT31;48512;48.552;9.380;2022-08-19T11:13:34;19.00;91.23
62464;SHT31;48512;48.552;9.380;2022-08-19T11:16:11;19.00;91.78
62464;SHT31;48512;48.552;9.380;2022-08-19T11:18:41;19.02;91.41
62464;SHT31;48512;48.552;9.380;2022-08-19T11:21:27;19.06;91.41
62464;SHT31;48512;48.552;9.380;2022-08-19T11:23:56;19.10;91.79
62464;SHT31;48512;48.552;9.380;2022-08-19T11:26:22;19.06;91.99
62464;SHT31;48512;48.552;9.380;2022-08-19T11:28:48;19.00;92.11
62464;SHT31;48512;48.552;9.380;2022-08-19T11:31:18;19.06;91.79
62464;SHT31;48512;48.552;9.380;2022-08-19T11:33:45;19.00;92.44
62464;SHT31;48512;48.552;9.380;2022-08-19T11:36:12;19.06;91.62
62464;SHT31;48512;48.552;9.380;2022-08-19T11:38:37;19.13;91.24
62464;SHT31;48512;48.552;9.380;2022-08-19T11:41:05;19.18;90.98
62464;SHT31;48512;48.552;9.380;2022-08-19T11:43:33;19.27;90.22
62464;SHT31;48512;48.552;9.380;2022-08-19T11:45:58;19.21;90.07
62464;SHT31;48512;48.552;9.380;2022-08-19T11:48:24;19.18;90.85
62464;SHT31;48512;48.552;9.380;2022-08-19T11:50:53;19.14;90.96
62464;SHT31;48512;48.552;9.380;2022-08-19T11:53:21;19.15;91.27
62464;SHT31;48512;48.552;9.380;2022-08-19T11:55:48;19.15;91.72
62464;SHT31;48512;48.552;9.380;2022-08-19T11:58:15;19.11;92.12
62464;SHT31;48512;48.552;9.380;2022-08-19T12:00:41;19.17;91.39
62464;SHT31;48512;48.552;9.380;2022-08-19T12:03:07;19.08;91.62
62464;SHT31;48512;48.552;9.380;2022-08-19T12:05:33;19.08;92.15
62464;SHT31;48512;48.552;9.380;2022-08-19T12:07:59;19.04;91.86
62464;SHT31;48512;48.552;9.380;2022-08-19T12:10:25;19.06;91.87
62464;SHT31;48512;48.552;9.380;2022-08-19T12:12:50;19.04;91.96
62464;SHT31;48512;48.552;9.380;2022-08-19T12:15:16;19.00;92.12
62464;SHT31;48512;48.552;9.380;2022-08-19T12:17:42;19.04;92.71
62464;SHT31;48512;48.552;9.380;2022-08-19T12:20:09;19.10;92.24
62464;SHT31;48512;48.552;9.380;2022-08-19T12:22:36;19.14;92.03
62464;SHT31;48512;48.552;9.380;2022-08-19T12:25:03;19.17;91.78
62464;SHT31;48512;48.552;9.380;2022-08-19T12:27:29;19.14;91.95
62464;SHT31;48512;48.552;9.380;2022-08-19T12:29:54;19.17;92.06
62464;SHT31;48512;48.552;9.380;2022-08-19T12:32:19;19.18;92.17
62464;SHT31;48512;48.552;9.380;2022-08-19T12:34:46;19.18;92.16
62464;SHT31;48512;48.552;9.380;2022-08-19T12:37:12;19.20;92.42
62464;SHT31;48512;48.552;9.380;2022-08-19T12:39:40;19.21;91.98
62464;SHT31;48512;48.552;9.380;2022-08-19T12:42:08;19.21;91.91
62464;SHT31;48512;48.552;9.380;2022-08-19T12:44:35;19.24;91.70
62464;SHT31;48512;48.552;9.380;2022-08-19T12:47:00;19.25;91.85
62464;SHT31;48512;48.552;9.380;2022-08-19T12:49:29;19.21;91.98
62464;SHT31;48512;48.552;9.380;2022-08-19T12:51:54;19.21;91.73
62464;SHT31;48512;48.552;9.380;2022-08-19T12:54:20;19.21;91.96
62464;SHT31;48512;48.552;9.380;2022-08-19T12:56:45;19.20;92.14
62464;SHT31;48512;48.552;9.380;2022-08-19T12:59:10;19.21;92.33
62464;SHT31;48512;48.552;9.380;2022-08-19T13:01:37;19.21;92.20
62464;SHT31;48512;48.552;9.380;2022-08-19T13:04:03;19.18;92.27
62464;SHT31;48512;48.552;9.380;2022-08-19T13:06:28;19.18;92.22
62464;SHT31;48512;48.552;9.380;2022-08-19T13:08:54;19.17;92.62
62464;SHT31;48512;48.552;9.380;2022-08-19T13:11:21;19.14;92.63
62464;SHT31;48512;48.552;9.380;2022-08-19T13:13:50;19.21;92.82
62464;SHT31;48512;48.552;9.380;2022-08-19T13:16:16;19.23;92.84
62464;SHT31;48512;48.552;9.380;2022-08-19T13:18:45;19.28;92.72
62464;SHT31;48512;48.552;9.380;2022-08-19T13:21:12;19.28;92.23
62464;SHT31;48512;48.552;9.380;2022-08-19T13:23:38;19.31;92.35
62464;SHT31;48512;48.552;9.380;2022-08-19T13:26:06;19.23;92.99
62464;SHT31;48512;48.552;9.380;2022-08-19T13:28:32;19.31;93.07
62464;SHT31;48512;48.552;9.380;2022-08-19T13:31:19;19.34;93.09
62464;SHT31;48512;48.552;9.380;2022-08-19T13:34:03;19.35;92.81
62464;SHT31;48512;48.552;9.380;2022-08-19T13:36:29;19.36;92.28
62464;SHT31;48512;48.552;9.380;2022-08-19T13:38:55;19.39;91.80
62464;SHT31;48512;48.552;9.380;2022-08-19T13:41:21;19.41;92.26
62464;SHT31;48512;48.552;9.380;2022-08-19T13:43:47;19.47;92.38
62464;SHT31;48512;48.552;9.380;2022-08-19T13:46:14;19.44;92.51
62464;SHT31;48512;48.552;9.380;2022-08-19T13:48:40;19.48;92.51
62464;SHT31;48512;48.552;9.380;2022-08-19T13:51:06;19.54;91.96
62464;SHT31;48512;48.552;9.380;2022-08-19T13:53:39;19.55;91.79
62464;SHT31;48512;48.552;9.380;2022-08-19T13:56:15;19.52;91.37
62464;SHT31;48512;48.552;9.380;2022-08-19T13:58:41;19.51;91.88
62464;SHT31;48512;48.552;9.380;2022-08-19T14:01:07;19.51;92.39
62464;SHT31;48512;48.552;9.380;2022-08-19T14:03:34;19.45;92.07
62464;SHT31;48512;48.552;9.380;2022-08-19T14:05:59;19.30;92.78
62464;SHT31;48512;48.552;9.380;2022-08-19T14:08:25;19.36;92.30
62464;SHT31;48512;48.552;9.380;2022-08-19T14:10:54;19.44;92.41
62464;SHT31;48512;48.552;9.380;2022-08-19T14:13:21;19.48;92.45
62464;SHT31;48512;48.552;9.380;2022-08-19T14:15:47;19.45;92.50
62464;SHT31;48512;48.552;9.380;2022-08-19T14:18:13;19.42;92.58
62464;SHT31;48512;48.552;9.380;2022-08-19T14:20:40;19.38;92.89
62464;SHT31;48512;48.552;9.380;2022-08-19T14:23:14;19.44;93.12
62464;SHT31;48512;48.552;9.380;2022-08-19T14:25:40;19.48;93.12
62464;SHT31;48512;48.552;9.380;2022-08-19T14:28:06;19.50;92.99
62464;SHT31;48512;48.552;9.380;2022-08-19T14:30:34;19.50;92.71
62464;SHT31;48512;48.552;9.380;2022-08-19T14:33:01;19.47;92.91
62464;SHT31;48512;48.552;9.380;2022-08-19T14:35:28;19.45;93.11
62464;SHT31;48512;48.552;9.380;2022-08-19T14:37:54;19.39;93.07
62464;SHT31;48512;48.552;9.380;2022-08-19T14:40:23;19.55;92.84
62464;SHT31;48512;48.552;9.380;2022-08-19T14:42:57;19.55;92.41
62464;SHT31;48512;48.552;9.380;2022-08-19T14:45:27;19.58;92.32
62464;SHT31;48512;48.552;9.380;2022-08-19T14:47:52;19.65;91.78
62464;SHT31;48512;48.552;9.380;2022-08-19T14:50:19;19.55;91.70
62464;SHT31;48512;48.552;9.380;2022-08-19T14:52:48;19.45;92.13
62464;SHT31;48512;48.552;9.380;2022-08-19T14:55:14;19.52;92.43
62464;SHT31;48512;48.552;9.380;2022-08-19T14:57:41;19.48;93.05
62464;SHT31;48512;48.552;9.380;2022-08-19T15:00:07;19.51;93.15
62464;SHT31;48512;48.552;9.380;2022-08-19T15:02:36;19.52;92.64
62464;SHT31;48512;48.552;9.380;2022-08-19T15:05:02;19.41;92.84
62464;SHT31;48512;48.552;9.380;2022-08-19T15:07:27;19.41;92.83
62464;SHT31;48512;48.552;9.380;2022-08-19T15:09:54;19.44;92.59
62464;SHT31;48512;48.552;9.380;2022-08-19T15:12:20;19.38;92.02
62464;SHT31;48512;48.552;9.380;2022-08-19T15:14:45;19.45;91.89
62464;SHT31;48512;48.552;9.380;2022-08-19T15:17:15;19.36;91.34
62464;SHT31;48512;48.552;9.380;2022-08-19T15:19:41;19.39;91.08
62464;SHT31;48512;48.552;9.380;2022-08-19T15:22:06;19.50;91.31
62464;SHT31;48512;48.552;9.380;2022-08-19T15:24:32;19.47;90.46
62464;SHT31;48512;48.552;9.380;2022-08-19T15:26:58;19.54;90.76
62464;SHT31;48512;48.552;9.380;2022-08-19T15:29:23;19.54;90.80
62464;SHT31;48512;48.552;9.380;2022-08-19T15:31:51;19.55;90.20
62464;SHT31;48512;48.552;9.380;2022-08-19T15:34:16;19.58;90.64
62464;SHT31;48512;48.552;9.380;2022-08-19T15:36:42;19.63;89.21
62464;SHT31;48512;48.552;9.380;2022-08-19T15:39:08;19.61;89.57
62464;SHT31;48512;48.552;9.380;2022-08-19T15:41:34;19.65;89.57